Time;durP1;ratioP1;P1;durP2;ratioP2;P2;SDS_P1;SDS_P2;PMS_P1;PMS_P2;Temp;Humidity;BMP_temperature;BMP_pressure;BME280_temperature;BME280_humidity;BME280_pressure;Samples;Min_cycle;Max_cycle;Signal;HPM_P1;HPM_P2
2022/01/25 00:28:20;;;;;;;73.82;46.47;;;5.30;86.90;;;;;;6160765;23;20348;-76
2022/01/25 00:31:09;;;;;;;78.13;45.00;;;5.30;86.90;;;;;;6139560;23;20329;-82
2022/01/25 00:33:36;;;;;;;76.57;44.75;;;5.30;86.80;;;;;;6136248;23;20098;-77
2022/01/25 00:36:03;;;;;;;81.13;47.40;;;5.30;86.80;;;;;;6136264;23;20052;-77
2022/01/25 00:38:28;;;;;;;78.65;46.63;;;5.30;86.80;;;;;;6160593;23;20021;-77
2022/01/25 00:40:54;;;;;;;79.45;45.30;;;5.30;86.90;;;;;;6160928;23;20021;-77
2022/01/25 00:43:22;;;;;;;78.70;46.83;;;5.30;86.80;;;;;;6112037;23;20447;-78
2022/01/25 00:45:49;;;;;;;76.65;45.53;;;5.20;86.80;;;;;;6161699;23;20431;-77
2022/01/25 00:48:19;;;;;;;78.57;46.15;;;5.30;87.00;;;;;;6161282;23;20021;-77
2022/01/25 00:50:47;;;;;;;76.05;43.30;;;5.30;87.10;;;;;;6187611;23;20032;-77
2022/01/25 00:55:57;;;;;;;75.57;44.15;;;5.20;87.00;;;;;;6139972;23;20325;-77
2022/01/25 00:58:23;;;;;;;78.38;47.17;;;5.30;87.10;;;;;;6161070;23;20017;-76
2022/01/25 01:00:50;;;;;;;74.45;45.42;;;5.20;87.70;;;;;;6136180;23;20021;-77
2022/01/25 01:03:15;;;;;;;78.57;44.45;;;5.20;87.00;;;;;;6160516;23;20017;-77
2022/01/25 01:05:42;;;;;;;76.53;46.40;;;5.20;87.00;;;;;;6160949;23;20392;-77
2022/01/25 01:08:07;;;;;;;74.75;44.42;;;5.20;87.00;;;;;;6159943;23;20021;-77
2022/01/25 01:10:33;;;;;;;79.43;46.25;;;5.20;87.10;;;;;;6185896;23;20023;-78
2022/01/25 01:29:24;;;;;;;75.43;45.45;;;5.20;87.30;;;;;;6141989;23;20091;-76
2022/01/25 01:47:25;;;;;;;80.97;46.17;;;5.20;87.30;;;;;;6141651;23;20107;-77
2022/01/25 01:49:51;;;;;;;80.47;47.25;;;5.20;87.30;;;;;;6163052;23;20013;-77
2022/01/25 01:52:17;;;;;;;82.65;46.60;;;5.20;87.30;;;;;;6162424;23;20455;-77
2022/01/25 01:54:45;;;;;;;80.70;46.05;;;5.20;88.00;;;;;;6137057;23;20442;-77
2022/01/25 01:57:10;;;;;;;79.15;45.50;;;5.20;87.30;;;;;;6162330;23;20084;-77
2022/01/25 01:59:36;;;;;;;77.40;45.40;;;5.20;87.40;;;;;;6138051;23;20025;-77
2022/01/25 02:02:02;;;;;;;78.50;44.38;;;5.20;87.40;;;;;;6137914;23;20463;-82
2022/01/25 02:04:28;;;;;;;83.30;46.95;;;5.20;87.40;;;;;;6112899;23;20017;-76
2022/01/25 02:06:55;;;;;;;81.13;46.65;;;5.20;87.50;;;;;;6137441;23;20096;-76
2022/01/25 02:09:21;;;;;;;75.15;44.53;;;5.20;87.50;;;;;;6162403;23;20024;-77
2022/01/25 02:11:46;;;;;;;79.22;45.03;;;5.20;87.50;;;;;;6188484;23;20083;-76
2022/01/25 02:14:15;;;;;;;75.38;43.40;;;5.20;87.60;;;;;;6137594;23;20115;-76
2022/01/25 02:24:38;;;;;;;80.15;46.67;;;5.10;87.60;;;;;;6188637;23;20025;-78
2022/01/25 02:27:04;;;;;;;82.43;46.17;;;5.20;87.60;;;;;;6162734;23;20023;-84
2022/01/25 02:29:30;;;;;;;82.40;45.33;;;5.10;87.50;;;;;;6138324;23;20021;-77
2022/01/25 02:31:56;;;;;;;83.38;47.65;;;5.20;87.50;;;;;;6162275;23;20079;-77
2022/01/25 02:34:22;;;;;;;79.28;45.97;;;5.10;87.50;;;;;;6137290;23;20095;-77
2022/01/25 02:37:01;;;;;;;82.13;46.47;;;5.10;87.50;;;;;;6162533;23;20017;-77
2022/01/25 02:39:27;;;;;;;77.75;44.53;;;5.10;87.50;;;;;;6139214;23;20028;-77
2022/01/25 02:41:53;;;;;;;82.00;45.60;;;5.10;87.50;;;;;;6162854;23;20439;-78
2022/01/25 02:44:24;;;;;;;79.63;47.03;;;5.10;87.60;;;;;;6162358;23;20383;-77
2022/01/25 02:49:17;;;;;;;79.53;45.88;;;5.10;87.50;;;;;;6162309;23;20097;-77
2022/01/25 02:51:45;;;;;;;75.93;44.25;;;5.10;87.40;;;;;;6162329;23;20021;-76
2022/01/25 02:54:11;;;;;;;74.95;42.92;;;5.10;87.50;;;;;;6136790;23;20025;-78
2022/01/25 02:56:37;;;;;;;75.78;42.85;;;5.10;87.50;;;;;;6137409;23;20040;-78
2022/01/25 02:59:04;;;;;;;74.45;42.53;;;5.10;87.60;;;;;;6137000;23;20075;-77
2022/01/25 03:01:30;;;;;;;78.78;45.28;;;5.10;87.50;;;;;;6137170;23;20376;-77
2022/01/25 03:03:55;;;;;;;72.53;42.38;;;5.10;87.60;;;;;;6137589;23;20048;-80
2022/01/25 03:06:22;;;;;;;72.18;42.88;;;5.10;87.60;;;;;;6161824;23;20444;-77
2022/01/25 03:08:48;;;;;;;72.28;42.17;;;5.10;87.60;;;;;;6137769;23;20439;-79
2022/01/25 03:11:14;;;;;;;79.05;44.28;;;5.10;87.60;;;;;;6161748;23;20017;-77
2022/01/25 03:13:56;;;;;;;81.38;44.20;;;5.10;87.60;;;;;;6162003;23;20104;-78
2022/01/25 03:16:43;;;;;;;77.50;42.67;;;5.10;87.60;;;;;;6161822;23;20108;-78
2022/01/25 03:19:45;;;;;;;76.35;42.95;;;5.10;87.60;;;;;;6140023;23;20069;-77
2022/01/25 03:22:32;;;;;;;78.55;43.08;;;5.10;87.60;;;;;;6143547;23;20467;-81
2022/01/25 03:24:58;;;;;;;76.82;41.63;;;5.10;87.60;;;;;;6140935;23;20044;-77
2022/01/25 03:27:23;;;;;;;75.70;43.15;;;5.00;87.60;;;;;;6161225;23;20017;-77
2022/01/25 03:29:49;;;;;;;74.30;42.30;;;5.10;87.60;;;;;;6161649;23;20440;-78
2022/01/25 03:32:15;;;;;;;78.22;42.78;;;5.10;87.60;;;;;;6137088;23;20028;-79
2022/01/25 03:34:40;;;;;;;81.20;43.40;;;5.00;87.50;;;;;;6162004;23;20040;-80
2022/01/25 03:37:06;;;;;;;78.68;44.13;;;5.00;87.60;;;;;;6161228;23;20396;-77
2022/01/25 03:39:41;;;;;;;73.57;42.17;;;5.00;87.60;;;;;;6161274;23;20020;-77
2022/01/25 03:42:09;;;;;;;78.80;44.90;;;5.10;87.60;;;;;;6161788;23;20529;-77
2022/01/25 03:44:35;;;;;;;73.68;41.80;;;5.00;87.60;;;;;;6187859;23;20009;-78
2022/01/25 03:47:07;;;;;;;81.45;43.60;;;5.10;87.80;;;;;;6161772;23;20033;-79
2022/01/25 03:49:52;;;;;;;75.35;41.72;;;5.10;87.80;;;;;;6137000;23;20025;-80
2022/01/25 03:52:33;;;;;;;74.38;41.38;;;5.00;87.80;;;;;;6161487;23;20021;-78
2022/01/25 03:54:59;;;;;;;75.13;41.05;;;5.10;87.80;;;;;;6163805;23;20016;-77
2022/01/25 03:57:27;;;;;;;75.63;42.03;;;5.10;87.70;;;;;;6112464;23;20043;-78
2022/01/25 03:59:54;;;;;;;76.05;42.53;;;5.00;87.70;;;;;;6161024;23;20016;-77
2022/01/25 04:02:20;;;;;;;81.20;43.40;;;5.00;87.70;;;;;;6161589;23;20028;-78
2022/01/25 04:04:46;;;;;;;73.53;40.30;;;5.10;87.80;;;;;;6160367;23;20021;-77
2022/01/25 04:07:14;;;;;;;74.05;42.42;;;5.00;87.70;;;;;;6161267;23;20083;-77
2022/01/25 04:09:40;;;;;;;70.70;40.45;;;5.00;87.80;;;;;;6161148;23;20087;-78
2022/01/25 04:12:06;;;;;;;79.40;43.35;;;5.00;87.80;;;;;;6187263;23;20341;-76
2022/01/25 04:14:32;;;;;;;74.60;43.17;;;5.00;87.80;;;;;;6136795;23;20016;-77
2022/01/25 04:17:08;;;;;;;81.40;44.25;;;5.10;87.90;;;;;;6161656;23;20376;-77
2022/01/25 04:19:41;;;;;;;79.68;43.97;;;5.10;87.90;;;;;;6163022;23;20099;-77
2022/01/25 04:25:01;;;;;;;81.68;44.95;;;5.10;87.90;;;;;;6187230;23;20059;-78
2022/01/25 04:27:27;;;;;;;71.05;39.67;;;5.00;87.90;;;;;;6140630;23;20024;-77
2022/01/25 04:29:53;;;;;;;77.07;42.40;;;5.10;87.90;;;;;;6136837;23;20025;-77
2022/01/25 04:32:19;;;;;;;78.65;41.58;;;5.10;87.90;;;;;;6186209;23;20447;-77
2022/01/25 04:35:08;;;;;;;80.05;41.58;;;5.10;87.90;;;;;;6136432;23;20351;-77
2022/01/25 04:51:27;;;;;;;78.05;42.65;;;5.00;87.80;;;;;;6142921;23;20021;-78
2022/01/25 04:54:04;;;;;;;76.07;41.23;;;5.00;87.80;;;;;;6166698;23;20020;-77
2022/01/25 05:01:42;;;;;;;78.72;41.00;;;5.00;88.00;;;;;;6188890;23;20065;-77
2022/01/25 05:04:13;;;;;;;72.05;40.13;;;5.10;88.20;;;;;;6162848;23;20017;-77
2022/01/25 05:06:41;;;;;;;77.35;40.22;;;5.00;88.20;;;;;;6162683;23;20017;-78
2022/01/25 05:09:12;;;;;;;78.80;43.25;;;5.00;88.10;;;;;;6163567;23;20452;-78
2022/01/25 05:11:42;;;;;;;77.32;43.20;;;5.10;88.10;;;;;;6163718;23;20079;-78
2022/01/25 05:16:47;;;;;;;83.53;44.80;;;5.00;88.10;;;;;;6162273;23;20021;-80
2022/01/25 05:24:30;;;;;;;77.43;40.80;;;5.10;88.20;;;;;;6141333;23;20332;-77
2022/01/25 05:26:56;;;;;;;78.05;40.45;;;5.10;88.20;;;;;;6161834;23;20069;-77
2022/01/25 05:29:21;;;;;;;74.15;42.25;;;5.10;88.20;;;;;;6138181;23;20108;-77
2022/01/25 05:31:47;;;;;;;74.95;41.28;;;5.10;88.20;;;;;;6138445;23;20220;-77
2022/01/25 05:34:13;;;;;;;79.43;43.60;;;5.10;88.20;;;;;;6114765;23;20096;-77
2022/01/25 05:36:39;;;;;;;75.72;41.83;;;5.00;88.20;;;;;;6163609;23;20024;-80
2022/01/25 05:39:13;;;;;;;76.40;42.17;;;5.10;88.30;;;;;;6138296;23;20016;-77
2022/01/25 05:41:40;;;;;;;77.50;42.80;;;5.00;88.20;;;;;;6138481;23;20024;-78
2022/01/25 05:49:21;;;;;;;72.53;38.88;;;5.10;88.30;;;;;;6139372;23;20021;-77
2022/01/25 05:51:47;;;;;;;76.80;42.42;;;5.00;88.30;;;;;;6189544;23;20021;-77
2022/01/25 05:54:15;;;;;;;70.20;41.17;;;5.00;88.30;;;;;;6188664;23;20032;-78
2022/01/25 05:56:41;;;;;;;77.25;40.38;;;5.00;88.30;;;;;;6161537;23;20122;-77
2022/01/25 05:59:06;;;;;;;73.07;41.22;;;5.00;88.30;;;;;;6138225;23;20448;-76
2022/01/25 06:01:34;;;;;;;78.57;42.20;;;5.00;88.20;;;;;;6162547;23;20052;-81
2022/01/25 06:04:00;;;;;;;74.93;41.08;;;5.00;88.20;;;;;;6163434;23;20009;-77
2022/01/25 06:06:26;;;;;;;75.05;42.38;;;5.00;88.30;;;;;;6189210;23;20027;-76
2022/01/25 06:08:51;;;;;;;81.85;42.22;;;5.00;88.30;;;;;;6162627;23;20013;-76
2022/01/25 06:11:19;;;;;;;82.43;42.25;;;5.00;88.30;;;;;;6113630;23;20017;-77
2022/01/25 06:13:45;;;;;;;77.50;41.03;;;5.00;88.40;;;;;;6162304;23;20097;-77
2022/01/25 06:16:11;;;;;;;74.13;41.25;;;5.00;88.30;;;;;;6162346;23;20432;-77
2022/01/25 06:18:36;;;;;;;77.50;42.25;;;5.00;89.00;;;;;;6161450;23;20049;-77
2022/01/25 06:21:02;;;;;;;75.78;42.30;;;5.00;88.40;;;;;;6187742;23;20028;-76
2022/01/25 06:23:28;;;;;;;77.70;41.08;;;5.00;88.40;;;;;;6161432;23;20052;-78
2022/01/25 06:25:53;;;;;;;78.22;41.45;;;5.00;88.50;;;;;;6160989;23;20451;-78
2022/01/25 06:28:19;;;;;;;79.93;42.00;;;5.00;88.40;;;;;;6137020;23;20017;-76
2022/01/25 06:30:45;;;;;;;75.60;40.72;;;5.00;88.50;;;;;;6186739;23;20017;-76
2022/01/25 06:33:11;;;;;;;80.32;43.38;;;5.00;88.50;;;;;;6161782;23;20092;-77
2022/01/25 06:35:37;;;;;;;81.35;41.35;;;5.00;88.60;;;;;;6187709;23;20025;-82
2022/01/25 06:38:02;;;;;;;78.05;39.53;;;5.00;88.60;;;;;;6136595;23;20071;-78
2022/01/25 06:40:28;;;;;;;78.43;39.78;;;5.00;88.60;;;;;;6187913;23;20041;-78
2022/01/25 06:42:56;;;;;;;80.75;40.95;;;5.00;88.70;;;;;;6112674;23;20021;-77
2022/01/25 06:45:24;;;;;;;81.05;41.08;;;5.00;88.60;;;;;;6162678;23;20473;-77
2022/01/25 06:47:50;;;;;;;82.78;41.38;;;5.00;88.60;;;;;;6138895;23;20021;-81
2022/01/25 06:50:17;;;;;;;83.13;42.22;;;5.00;88.60;;;;;;6164222;23;20347;-77
2022/01/25 06:52:45;;;;;;;78.50;40.83;;;5.00;88.60;;;;;;6163095;23;20028;-79
2022/01/25 06:55:13;;;;;;;80.35;41.67;;;5.00;88.60;;;;;;6115007;23;20018;-78
2022/01/25 06:57:38;;;;;;;71.82;41.15;;;5.00;88.60;;;;;;6139227;23;20013;-79
2022/01/25 07:00:06;;;;;;;75.97;40.65;;;5.00;88.60;;;;;;6112594;23;20401;-76
2022/01/25 07:02:32;;;;;;;76.85;40.00;;;5.00;88.90;;;;;;6137052;23;20076;-79
2022/01/25 07:04:57;;;;;;;76.90;39.95;;;5.00;88.60;;;;;;6136202;23;20017;-79
2022/01/25 07:07:23;;;;;;;73.47;40.85;;;5.00;88.70;;;;;;6161705;23;20328;-76
2022/01/25 07:09:49;;;;;;;75.53;41.08;;;5.00;88.80;;;;;;6134932;23;20021;-79
2022/01/25 07:12:14;;;;;;;34.03;20.05;;;5.00;88.70;;;;;;6163495;23;20013;-87
2022/01/25 07:14:40;;;;;;;59.97;30.80;;;5.10;89.50;;;;;;6114519;23;20459;-82
2022/01/25 07:17:06;;;;;;;75.75;41.28;;;5.50;91.00;;;;;;6164384;23;20017;-78
2022/01/25 07:19:31;;;;;;;72.55;39.42;;;5.50;89.80;;;;;;6164127;23;20050;-80
2022/01/25 07:21:57;;;;;;;79.43;43.22;;;5.50;89.00;;;;;;6191114;23;20025;-80
2022/01/25 07:24:23;;;;;;;79.60;41.40;;;5.40;88.70;;;;;;6165760;23;20021;-80
2022/01/25 07:26:51;;;;;;;76.43;42.53;;;5.40;88.60;;;;;;6164691;23;20092;-83
2022/01/25 07:29:16;;;;;;;73.53;39.15;;;5.40;88.60;;;;;;6164604;23;20021;-83
2022/01/25 07:31:42;;;;;;;73.80;38.80;;;5.30;88.60;;;;;;6137856;23;20476;-84
2022/01/25 07:34:08;;;;;;;77.05;40.13;;;5.30;88.50;;;;;;6133195;23;20017;-77
2022/01/25 07:36:36;;;;;;;79.95;42.13;;;5.30;88.50;;;;;;6159257;23;20067;-74
2022/01/25 07:39:02;;;;;;;81.18;41.22;;;5.20;88.50;;;;;;6159975;23;20088;-78
2022/01/25 07:41:27;;;;;;;80.82;40.90;;;5.20;88.50;;;;;;6163574;23;20021;-75
2022/01/25 07:43:53;;;;;;;75.97;40.58;;;5.20;88.50;;;;;;6162337;23;20140;-75
2022/01/25 07:46:19;;;;;;;79.90;40.67;;;5.20;88.60;;;;;;6113475;23;20108;-75
2022/01/25 07:48:45;;;;;;;78.80;42.75;;;5.20;88.60;;;;;;6162570;23;20012;-76
2022/01/25 07:51:10;;;;;;;80.03;43.28;;;5.20;88.60;;;;;;6162180;23;20031;-76
2022/01/25 07:53:37;;;;;;;78.30;42.05;;;5.10;88.50;;;;;;6137905;23;20017;-77
2022/01/25 07:56:03;;;;;;;74.32;41.17;;;5.10;88.50;;;;;;6187978;23;20032;-76
2022/01/25 07:58:29;;;;;;;76.18;40.65;;;5.10;88.50;;;;;;6161572;23;20017;-75
2022/01/25 08:00:55;;;;;;;72.70;39.53;;;5.10;88.60;;;;;;6161399;23;20017;-75
2022/01/25 08:03:21;;;;;;;75.53;41.03;;;5.10;88.70;;;;;;6162285;23;20021;-76
2022/01/25 08:05:48;;;;;;;74.40;38.92;;;5.10;88.70;;;;;;6162213;23;20123;-75
2022/01/25 08:08:13;;;;;;;75.55;41.75;;;5.10;88.80;;;;;;6137425;23;20017;-76
2022/01/25 08:10:39;;;;;;;80.45;41.20;;;5.10;88.80;;;;;;6162751;23;20067;-75
2022/01/25 08:13:05;;;;;;;80.57;41.03;;;5.10;88.80;;;;;;6160772;23;20021;-75
2022/01/25 08:15:30;;;;;;;79.10;42.22;;;5.10;88.80;;;;;;6161593;23;20024;-76
2022/01/25 08:17:56;;;;;;;76.10;42.83;;;5.10;88.80;;;;;;6136747;23;20032;-76
2022/01/25 08:20:22;;;;;;;81.93;45.03;;;5.10;88.80;;;;;;6135478;23;20020;-76
2022/01/25 08:22:47;;;;;;;83.20;43.55;;;5.10;88.80;;;;;;6112136;23;20068;-75
2022/01/25 08:25:13;;;;;;;75.60;42.00;;;5.10;88.80;;;;;;6159106;23;20025;-76
2022/01/25 08:27:39;;;;;;;80.00;41.85;;;5.20;88.90;;;;;;6115464;23;20102;-76
2022/01/25 08:30:05;;;;;;;76.75;40.55;;;5.10;88.80;;;;;;6139183;23;20021;-79
2022/01/25 08:32:31;;;;;;;49.88;27.48;;;5.10;88.80;;;;;;6161406;23;20024;-80
2022/01/25 08:34:58;;;;;;;53.45;27.48;;;5.60;91.40;;;;;;6136122;23;20289;-75
2022/01/25 08:37:24;;;;;;;74.82;40.83;;;6.10;91.50;;;;;;6159999;23;20028;-75
2022/01/25 08:39:49;;;;;;;77.78;40.92;;;6.30;90.00;;;;;;6162060;23;20019;-75
2022/01/25 08:42:15;;;;;;;59.85;32.67;;;6.10;88.40;;;;;;6135925;23;20623;-77
2022/01/25 08:44:41;;;;;;;77.60;42.47;;;6.00;88.10;;;;;;6138448;23;20021;-75
2022/01/25 08:47:07;;;;;;;74.05;38.92;;;6.20;89.50;;;;;;6134011;23;20025;-75
2022/01/25 08:49:33;;;;;;;74.07;41.22;;;6.10;88.40;;;;;;6160282;23;20052;-76
2022/01/25 08:51:59;;;;;;;75.18;41.45;;;6.00;88.10;;;;;;6112010;23;20313;-77
2022/01/25 08:54:28;;;;;;;78.82;41.40;;;5.90;88.10;;;;;;6160551;23;20024;-76
2022/01/25 08:56:53;;;;;;;78.35;40.30;;;5.90;88.10;;;;;;6112323;23;20070;-76
2022/01/25 08:59:19;;;;;;;77.57;42.00;;;5.80;88.10;;;;;;6161186;23;20025;-75
2022/01/25 09:01:45;;;;;;;76.43;41.08;;;5.70;88.10;;;;;;6133952;23;20024;-74
2022/01/25 09:04:10;;;;;;;70.32;40.47;;;5.70;88.10;;;;;;6159533;23;20506;-74
2022/01/25 09:06:36;;;;;;;75.82;40.15;;;5.70;88.20;;;;;;6110077;23;20056;-79
2022/01/25 09:09:07;;;;;;;71.80;38.97;;;5.70;88.20;;;;;;6135747;23;20360;-73
2022/01/25 09:11:34;;;;;;;79.95;42.38;;;5.70;88.20;;;;;;6135651;23;20024;-75
2022/01/25 09:14:00;;;;;;;77.35;42.15;;;5.70;88.20;;;;;;6135913;23;20475;-78
2022/01/25 09:16:26;;;;;;;77.50;40.38;;;5.60;88.20;;;;;;6159502;23;20021;-76
2022/01/25 09:18:52;;;;;;;76.82;40.85;;;5.60;88.20;;;;;;6160520;23;20092;-77
2022/01/25 09:21:18;;;;;;;78.30;41.45;;;5.60;88.20;;;;;;6135395;23;20017;-75
2022/01/25 09:23:43;;;;;;;81.85;43.35;;;5.60;88.20;;;;;;6159221;23;20017;-75
2022/01/25 09:26:09;;;;;;;76.25;41.22;;;5.60;88.20;;;;;;6110355;23;20309;-75
2022/01/25 09:28:35;;;;;;;76.85;40.80;;;5.50;88.20;;;;;;6135296;23;20017;-74
2022/01/25 09:31:01;;;;;;;78.90;42.00;;;5.60;88.30;;;;;;6135208;23;20021;-78
2022/01/25 09:33:27;;;;;;;75.28;40.53;;;5.50;88.20;;;;;;6135924;23;20025;-74
2022/01/25 09:35:53;;;;;;;74.95;40.38;;;5.60;88.30;;;;;;6160150;23;20039;-74
2022/01/25 09:38:19;;;;;;;82.13;41.63;;;5.60;88.30;;;;;;6086137;23;20388;-76
2022/01/25 09:40:45;;;;;;;74.93;40.60;;;5.50;88.20;;;;;;6135061;23;20018;-74
2022/01/25 09:43:11;;;;;;;78.32;39.85;;;5.60;88.20;;;;;;6135504;23;20021;-75
2022/01/25 09:45:37;;;;;;;78.60;40.63;;;5.50;88.00;;;;;;6111742;23;20021;-75
2022/01/25 09:48:04;;;;;;;72.90;40.55;;;5.60;88.20;;;;;;6112097;23;20028;-79
2022/01/25 09:50:29;;;;;;;77.90;40.60;;;5.60;88.10;;;;;;6113247;23;20111;-76
2022/01/25 09:52:55;;;;;;;80.28;40.45;;;5.50;88.00;;;;;;6113064;23;20021;-81
2022/01/25 09:55:23;;;;;;;74.00;39.63;;;5.50;88.00;;;;;;6162840;23;20013;-80
2022/01/25 09:57:49;;;;;;;81.70;39.65;;;5.50;88.00;;;;;;6165949;23;20099;-78
2022/01/25 10:00:19;;;;;;;77.38;40.75;;;5.50;88.00;;;;;;6116210;23;20028;-78
2022/01/25 10:05:33;;;;;;;75.03;40.78;;;5.60;88.20;;;;;;6141789;23;20021;-78
2022/01/25 10:08:20;;;;;;;71.40;39.22;;;5.60;88.10;;;;;;6142276;23;20099;-80
2022/01/25 10:10:54;;;;;;;76.72;40.90;;;5.60;88.00;;;;;;6141411;23;20021;-80
2022/01/25 10:13:27;;;;;;;74.47;39.83;;;5.60;88.00;;;;;;6117571;23;20020;-80
2022/01/25 10:16:09;;;;;;;74.18;39.70;;;5.60;88.00;;;;;;6118155;23;20040;-79
2022/01/25 10:18:56;;;;;;;78.47;41.45;;;5.60;87.90;;;;;;6118057;23;20339;-79
2022/01/25 10:21:26;;;;;;;74.60;40.00;;;5.60;87.80;;;;;;6116586;23;20021;-79
2022/01/25 10:24:19;;;;;;;72.45;39.53;;;5.60;87.80;;;;;;6141044;23;20047;-78
2022/01/25 10:26:48;;;;;;;;;;;5.60;87.60;;;;;;6113216;23;20020;-79
2022/01/25 10:29:19;;;;;;;77.93;41.30;;;5.60;87.80;;;;;;6164985;23;19987;-79
2022/01/25 10:31:47;;;;;;;78.75;41.55;;;5.50;87.80;;;;;;6141815;23;20020;-78
2022/01/25 10:34:15;;;;;;;75.07;41.60;;;5.50;87.80;;;;;;6164925;23;20111;-77
2022/01/25 10:36:45;;;;;;;79.93;41.25;;;5.60;87.90;;;;;;6141150;23;20021;-77
2022/01/25 10:39:11;;;;;;;76.75;39.58;;;5.50;87.80;;;;;;6140796;23;20017;-83
2022/01/25 10:41:38;;;;;;;72.82;41.38;;;5.60;87.80;;;;;;6140571;23;20024;-80
2022/01/25 10:44:05;;;;;;;75.55;40.65;;;5.60;87.80;;;;;;6166866;23;20017;-77
2022/01/25 10:46:31;;;;;;;78.07;41.00;;;5.60;87.70;;;;;;6140339;23;20016;-77
2022/01/25 10:49:11;;;;;;;85.43;40.03;;;5.60;87.80;;;;;;6141343;23;20043;-77
2022/01/25 10:51:40;;;;;;;76.70;40.13;;;5.50;87.80;;;;;;6116147;23;20028;-80
2022/01/25 10:54:07;;;;;;;78.60;40.63;;;5.50;87.90;;;;;;6164693;23;20368;-77
2022/01/25 10:56:40;;;;;;;80.07;42.85;;;5.60;87.90;;;;;;6139586;23;20072;-77
2022/01/25 10:59:07;;;;;;;78.70;40.35;;;5.60;88.00;;;;;;6141094;23;20013;-78
2022/01/25 11:01:38;;;;;;;77.90;40.63;;;5.60;88.00;;;;;;6164882;23;20065;-80
2022/01/25 11:04:09;;;;;;;77.90;42.70;;;5.60;88.10;;;;;;6165499;23;20021;-76
2022/01/25 11:06:34;;;;;;;84.07;43.20;;;5.60;88.10;;;;;;6140020;23;20013;-78
2022/01/25 11:09:03;;;;;;;83.15;43.65;;;5.60;88.10;;;;;;6116294;23;20028;-78
2022/01/25 11:11:34;;;;;;;74.55;40.40;;;5.70;88.10;;;;;;6116541;23;20403;-78
2022/01/25 11:14:50;;;;;;;78.18;41.13;;;5.60;88.10;;;;;;6117166;23;20428;-78
2022/01/25 11:16:48;;;;;;;86.90;41.33;;;5.70;88.20;;;;;;6168378;23;20021;-78
2022/01/25 11:19:15;;;;;;;77.60;40.70;;;5.70;88.20;;;;;;6165306;23;20021;-76
2022/01/25 11:21:42;;;;;;;79.57;41.53;;;5.70;88.20;;;;;;6164525;23;20021;-77
2022/01/25 11:24:09;;;;;;;75.82;39.92;;;5.70;88.20;;;;;;6140472;23;20013;-75
2022/01/25 11:26:34;;;;;;;80.97;42.45;;;5.70;88.20;;;;;;6164236;23;20028;-76
2022/01/25 11:29:01;;;;;;;76.13;41.35;;;5.70;88.30;;;;;;6115876;23;20021;-75
2022/01/25 11:31:27;;;;;;;79.07;40.28;;;5.70;88.20;;;;;;6139153;23;20544;-76
2022/01/25 11:33:53;;;;;;;78.03;42.42;;;5.70;88.30;;;;;;6163683;23;20075;-77
2022/01/25 11:36:20;;;;;;;75.22;40.40;;;5.70;88.30;;;;;;6162445;23;20021;-84
2022/01/25 11:38:51;;;;;;;84.18;42.53;;;5.80;88.30;;;;;;6162682;23;20092;-77
2022/01/25 11:41:18;;;;;;;78.80;40.20;;;5.70;88.20;;;;;;6162613;23;20071;-78
2022/01/25 11:43:45;;;;;;;80.05;39.47;;;5.80;88.30;;;;;;6139432;23;20017;-76
2022/01/25 11:46:11;;;;;;;75.82;40.20;;;5.80;88.30;;;;;;6139814;23;20023;-77
2022/01/25 11:48:40;;;;;;;72.93;40.45;;;5.70;88.10;;;;;;6164841;23;20021;-78
2022/01/25 11:51:15;;;;;;;82.13;42.15;;;5.80;88.10;;;;;;6137774;23;20466;-73
2022/01/25 11:53:42;;;;;;;77.68;40.22;;;5.80;88.20;;;;;;6189853;23;20040;-77
2022/01/25 11:56:09;;;;;;;78.28;39.92;;;5.80;88.10;;;;;;6140305;23;20021;-84
2022/01/25 11:58:36;;;;;;;70.80;39.00;;;5.80;88.20;;;;;;6164267;23;20017;-77
2022/01/25 12:01:05;;;;;;;77.13;39.97;;;5.80;88.20;;;;;;6140526;23;20129;-83
2022/01/25 12:03:31;;;;;;;77.65;39.63;;;5.80;88.20;;;;;;6116140;23;20021;-83
2022/01/25 12:06:06;;;;;;;73.32;38.10;;;5.80;88.10;;;;;;6165547;23;20020;-79
2022/01/25 12:11:24;;;;;;;73.13;37.75;;;5.80;88.10;;;;;;6165185;23;20095;-77
2022/01/25 12:14:13;;;;;;;72.15;36.65;;;5.90;88.30;;;;;;6189281;23;20079;-79
2022/01/25 12:16:43;;;;;;;72.53;39.30;;;5.90;88.20;;;;;;6139446;23;20017;-78
2022/01/25 12:19:10;;;;;;;75.90;39.22;;;5.90;88.30;;;;;;6140891;23;20455;-77
2022/01/25 12:21:45;;;;;;;77.25;39.80;;;5.90;88.20;;;;;;6186498;23;20044;-76
2022/01/25 12:24:40;;;;;;;82.82;41.30;;;5.90;88.10;;;;;;6165052;23;20013;-75
2022/01/25 12:30:02;;;;;;;80.10;40.20;;;5.90;88.10;;;;;;6188726;23;20455;-73
2022/01/25 12:32:47;;;;;;;74.28;39.13;;;5.90;88.10;;;;;;6159770;23;20021;-73
2022/01/25 12:35:15;;;;;;;70.93;36.35;;;5.90;88.10;;;;;;6136266;23;20068;-73
2022/01/25 12:37:44;;;;;;;80.65;39.50;;;5.90;88.00;;;;;;6136571;23;20021;-73
2022/01/25 12:40:26;;;;;;;75.03;39.05;;;6.00;88.70;;;;;;6161727;23;20064;-78
2022/01/25 12:42:58;;;;;;;75.47;37.92;;;6.00;87.90;;;;;;6137887;23;20021;-77
2022/01/25 12:45:29;;;;;;;80.32;38.83;;;6.00;87.90;;;;;;6114768;23;20020;-78
2022/01/25 12:47:57;;;;;;;82.80;41.15;;;6.00;87.90;;;;;;6139766;23;20009;-77
2022/01/25 12:50:23;;;;;;;75.68;39.85;;;6.00;87.80;;;;;;6164170;23;20020;-76
2022/01/25 12:52:49;;;;;;;79.32;40.42;;;6.00;87.80;;;;;;6188937;23;20013;-75
2022/01/25 12:55:15;;;;;;;79.20;38.78;;;6.00;87.70;;;;;;6161627;23;20028;-75
2022/01/25 12:57:47;;;;;;;83.03;39.65;;;6.00;87.70;;;;;;6134225;23;20491;-77
2022/01/25 13:00:14;;;;;;;81.60;40.97;;;6.00;87.80;;;;;;6135757;23;20021;-76
2022/01/25 13:02:40;;;;;;;79.57;38.22;;;6.00;87.70;;;;;;6137017;23;20072;-74
2022/01/25 13:05:16;;;;;;;76.43;39.20;;;6.00;87.80;;;;;;6134054;23;20017;-73
2022/01/25 13:07:42;;;;;;;73.47;39.08;;;6.00;87.70;;;;;;6186945;23;20017;-74
2022/01/25 13:10:10;;;;;;;76.53;40.05;;;6.00;87.70;;;;;;6163189;23;20025;-80
2022/01/25 13:12:54;;;;;;;75.20;40.50;;;6.00;87.70;;;;;;6160392;23;20075;-76
2022/01/25 13:16:12;;;;;;;81.75;39.40;;;6.10;87.70;;;;;;6140540;23;20508;-75
2022/01/25 13:18:13;;;;;;;71.95;39.60;;;6.10;87.80;;;;;;6151148;23;20336;-74
2022/01/25 13:20:41;;;;;;;73.93;37.83;;;6.00;87.70;;;;;;6112555;23;20024;-74
2022/01/25 13:23:07;;;;;;;77.53;41.30;;;6.00;87.70;;;;;;6136953;23;20024;-74
2022/01/25 13:25:54;;;;;;;75.30;38.67;;;6.00;87.60;;;;;;6138769;23;20024;-82
2022/01/25 13:30:39;;;;;;;74.60;39.58;;;6.00;87.60;;;;;;6142985;23;20529;-78
2022/01/25 13:31:11;;;;;;;73.53;38.60;;;6.10;87.70;;;;;;6119390;23;20021;-80
2022/01/25 13:33:36;;;;;;;75.78;39.40;;;6.10;87.60;;;;;;6137999;23;20017;-75
2022/01/25 13:36:03;;;;;;;76.28;39.15;;;6.10;87.60;;;;;;6161162;23;20036;-75
2022/01/25 13:38:37;;;;;;;80.43;39.58;;;6.00;87.50;;;;;;6137030;23;20013;-73
2022/01/25 13:46:33;;;;;;;76.35;38.47;;;6.10;87.80;;;;;;6141290;23;20021;-75
2022/01/25 13:49:05;;;;;;;70.43;38.70;;;6.00;87.80;;;;;;6164795;23;20372;-75
2022/01/25 13:51:39;;;;;;;72.75;35.85;;;6.00;87.80;;;;;;6138030;23;20017;-74
2022/01/25 13:54:04;;;;;;;71.03;36.53;;;6.00;87.70;;;;;;6160427;23;20025;-74
2022/01/25 13:56:32;;;;;;;79.10;39.28;;;6.00;87.70;;;;;;6136606;23;20053;-75
2022/01/25 13:59:02;;;;;;;72.97;37.85;;;6.00;87.70;;;;;;6136101;23;20060;-75
2022/01/25 14:01:32;;;;;;;76.68;38.00;;;6.00;87.70;;;;;;6136809;23;20021;-75
2022/01/25 14:04:14;;;;;;;69.38;36.30;;;6.00;87.70;;;;;;6136126;23;20027;-74
2022/01/25 14:06:41;;;;;;;72.68;37.25;;;6.00;87.70;;;;;;6136652;23;20020;-73
2022/01/25 14:09:12;;;;;;;69.72;36.28;;;6.00;87.70;;;;;;6112616;23;20021;-74
2022/01/25 14:25:20;;;;;;;73.10;36.35;;;5.90;87.50;;;;;;6138901;23;20446;-79
2022/01/25 14:27:53;;;;;;;73.07;37.97;;;5.90;87.60;;;;;;6111530;23;20025;-73
2022/01/25 14:30:19;;;;;;;69.32;36.92;;;5.90;87.70;;;;;;6138177;23;20017;-76
2022/01/25 14:33:10;;;;;;;79.72;40.45;;;5.90;87.70;;;;;;6161158;23;20021;-78
2022/01/25 14:35:44;;;;;;;70.80;33.53;;;5.90;87.60;;;;;;6146897;23;20021;-79
2022/01/25 14:38:21;;;;;;;68.60;35.45;;;5.90;87.80;;;;;;6164700;23;20335;-75
2022/01/25 14:41:00;;;;;;;72.95;36.70;;;5.90;88.20;;;;;;6138013;23;20029;-76
2022/01/25 14:43:31;;;;;;;67.18;35.60;;;5.90;88.00;;;;;;6163468;23;20021;-77
2022/01/25 14:46:01;;;;;;;69.80;34.92;;;5.90;88.00;;;;;;6164220;23;20175;-77
2022/01/25 14:48:28;;;;;;;74.38;36.53;;;5.90;87.90;;;;;;6115520;23;20025;-79
2022/01/25 14:50:59;;;;;;;69.10;35.63;;;5.90;88.00;;;;;;6139785;23;20440;-77
2022/01/25 14:53:24;;;;;;;67.60;35.65;;;5.90;88.00;;;;;;6138941;23;20391;-75
2022/01/25 14:55:52;;;;;;;74.88;37.30;;;5.90;88.70;;;;;;6161044;23;20021;-74
2022/01/25 15:00:55;;;;;;;76.65;37.88;;;5.90;87.90;;;;;;6163151;23;20021;-88
2022/01/25 15:03:24;;;;;;;68.65;35.35;;;5.80;87.80;;;;;;6165793;23;20021;-75